sensor_id;sensor_type;location;lat;lon;timestamp;pressure;altitude;pressure_sealevel;temperature;humidity
43153;BME280;28756;49.064;9.290;2022-12-18T00:01:04;100313.91;;;-12.24;100.00
43153;BME280;28756;49.064;9.290;2022-12-18T00:03:35;100318.66;;;-12.28;100.00
43153;BME280;28756;49.064;9.290;2022-12-18T00:06:02;100321.06;;;-12.30;100.00
43153;BME280;28756;49.064;9.290;2022-12-18T00:08:28;100322.47;;;-12.35;100.00
43153;BME280;28756;49.064;9.290;2022-12-18T00:10:54;100310.53;;;-12.39;100.00
43153;BME280;28756;49.064;9.290;2022-12-18T00:13:23;100309.38;;;-12.44;100.00
43153;BME280;28756;49.064;9.290;2022-12-18T00:15:49;100312.94;;;-12.41;100.00
43153;BME280;28756;49.064;9.290;2022-12-18T00:18:14;100318.22;;;-12.36;100.00
43153;BME280;28756;49.064;9.290;2022-12-18T00:20:40;100322.97;;;-12.41;100.00
43153;BME280;28756;49.064;9.290;2022-12-18T00:23:07;100314.69;;;-12.40;100.00
43153;BME280;28756;49.064;9.290;2022-12-18T00:25:35;100317.78;;;-12.29;100.00
43153;BME280;28756;49.064;9.290;2022-12-18T00:28:03;100323.25;;;-12.21;100.00
43153;BME280;28756;49.064;9.290;2022-12-18T00:30:29;100324.38;;;-12.16;100.00
43153;BME280;28756;49.064;9.290;2022-12-18T00:32:55;100320.31;;;-12.14;100.00
43153;BME280;28756;49.064;9.290;2022-12-18T00:35:21;100311.25;;;-12.12;100.00
43153;BME280;28756;49.064;9.290;2022-12-18T00:37:47;100313.75;;;-12.12;100.00
43153;BME280;28756;49.064;9.290;2022-12-18T00:40:13;100304.91;;;-12.05;100.00
43153;BME280;28756;49.064;9.290;2022-12-18T00:42:39;100312.72;;;-12.15;100.00
43153;BME280;28756;49.064;9.290;2022-12-18T00:45:26;100312.00;;;-12.28;100.00
43153;BME280;28756;49.064;9.290;2022-12-18T00:47:52;100309.50;;;-12.28;100.00
43153;BME280;28756;49.064;9.290;2022-12-18T00:50:18;100308.28;;;-12.34;100.00
43153;BME280;28756;49.064;9.290;2022-12-18T00:52:44;100309.59;;;-12.41;100.00
43153;BME280;28756;49.064;9.290;2022-12-18T00:55:10;100309.41;;;-12.29;100.00
43153;BME280;28756;49.064;9.290;2022-12-18T00:57:36;100312.97;;;-12.26;100.00
43153;BME280;28756;49.064;9.290;2022-12-18T01:00:05;100321.00;;;-12.16;100.00
43153;BME280;28756;49.064;9.290;2022-12-18T01:02:31;100321.34;;;-12.25;100.00
43153;BME280;28756;49.064;9.290;2022-12-18T01:04:57;100322.03;;;-12.28;100.00
43153;BME280;28756;49.064;9.290;2022-12-18T01:07:23;100329.63;;;-12.41;100.00
43153;BME280;28756;49.064;9.290;2022-12-18T01:09:48;100330.84;;;-12.49;100.00
43153;BME280;28756;49.064;9.290;2022-12-18T01:12:14;100334.03;;;-12.52;100.00
43153;BME280;28756;49.064;9.290;2022-12-18T01:14:40;100322.34;;;-12.51;100.00
43153;BME280;28756;49.064;9.290;2022-12-18T01:17:06;100322.81;;;-12.44;100.00
43153;BME280;28756;49.064;9.290;2022-12-18T01:19:32;100320.81;;;-12.49;100.00
43153;BME280;28756;49.064;9.290;2022-12-18T01:21:57;100324.66;;;-12.55;100.00
43153;BME280;28756;49.064;9.290;2022-12-18T01:24:23;100330.66;;;-12.52;100.00
43153;BME280;28756;49.064;9.290;2022-12-18T01:26:52;100335.56;;;-12.54;100.00
43153;BME280;28756;49.064;9.290;2022-12-18T01:29:18;100339.63;;;-12.56;100.00
43153;BME280;28756;49.064;9.290;2022-12-18T01:31:44;100347.75;;;-12.45;100.00
43153;BME280;28756;49.064;9.290;2022-12-18T01:34:09;100342.06;;;-12.43;100.00
43153;BME280;28756;49.064;9.290;2022-12-18T01:36:38;100353.31;;;-12.36;100.00
43153;BME280;28756;49.064;9.290;2022-12-18T01:39:13;100340.97;;;-12.33;100.00
43153;BME280;28756;49.064;9.290;2022-12-18T01:41:39;100349.69;;;-12.26;100.00
43153;BME280;28756;49.064;9.290;2022-12-18T01:45:02;100337.44;;;-12.36;100.00
43153;BME280;28756;49.064;9.290;2022-12-18T01:47:38;100340.34;;;-12.44;100.00
43153;BME280;28756;49.064;9.290;2022-12-18T01:50:32;100327.13;;;-12.41;100.00
43153;BME280;28756;49.064;9.290;2022-12-18T01:55:46;100324.19;;;-12.34;100.00
43153;BME280;28756;49.064;9.290;2022-12-18T01:58:13;100318.56;;;-12.30;100.00
43153;BME280;28756;49.064;9.290;2022-12-18T02:00:39;100317.91;;;-12.27;100.00
43153;BME280;28756;49.064;9.290;2022-12-18T02:03:05;100330.31;;;-12.29;100.00
43153;BME280;28756;49.064;9.290;2022-12-18T02:05:44;100338.03;;;-12.26;100.00
43153;BME280;28756;49.064;9.290;2022-12-18T02:08:29;100340.69;;;-12.23;100.00
43153;BME280;28756;49.064;9.290;2022-12-18T02:17:08;100340.41;;;-12.57;100.00
43153;BME280;28756;49.064;9.290;2022-12-18T02:27:52;100341.09;;;-12.60;100.00
43153;BME280;28756;49.064;9.290;2022-12-18T02:30:20;100330.72;;;-12.66;100.00
43153;BME280;28756;49.064;9.290;2022-12-18T02:32:51;100328.47;;;-12.61;100.00
43153;BME280;28756;49.064;9.290;2022-12-18T02:35:25;100334.06;;;-12.65;100.00
43153;BME280;28756;49.064;9.290;2022-12-18T02:37:53;100331.56;;;-12.65;100.00
43153;BME280;28756;49.064;9.290;2022-12-18T02:40:21;100347.16;;;-12.56;100.00
43153;BME280;28756;49.064;9.290;2022-12-18T02:42:47;100348.59;;;-12.60;100.00
43153;BME280;28756;49.064;9.290;2022-12-18T02:45:13;100362.53;;;-12.65;100.00
43153;BME280;28756;49.064;9.290;2022-12-18T02:47:42;100359.06;;;-12.67;100.00
43153;BME280;28756;49.064;9.290;2022-12-18T02:50:34;100355.56;;;-12.69;100.00
43153;BME280;28756;49.064;9.290;2022-12-18T02:53:24;100359.91;;;-12.66;100.00
43153;BME280;28756;49.064;9.290;2022-12-18T02:56:06;100370.19;;;-12.62;100.00
43153;BME280;28756;49.064;9.290;2022-12-18T02:59:02;100372.28;;;-12.55;100.00
43153;BME280;28756;49.064;9.290;2022-12-18T03:02:15;100357.94;;;-12.57;100.00
43153;BME280;28756;49.064;9.290;2022-12-18T03:07:54;100357.16;;;-12.56;100.00
43153;BME280;28756;49.064;9.290;2022-12-18T03:10:27;100353.00;;;-12.71;100.00
43153;BME280;28756;49.064;9.290;2022-12-18T03:13:16;100355.31;;;-12.74;100.00
43153;BME280;28756;49.064;9.290;2022-12-18T03:15:48;100354.44;;;-12.74;100.00
43153;BME280;28756;49.064;9.290;2022-12-18T03:18:35;100342.13;;;-12.71;100.00
43153;BME280;28756;49.064;9.290;2022-12-18T03:21:05;100349.63;;;-12.71;100.00
43153;BME280;28756;49.064;9.290;2022-12-18T03:23:37;100345.13;;;-12.77;100.00
43153;BME280;28756;49.064;9.290;2022-12-18T03:26:09;100341.22;;;-12.72;100.00
43153;BME280;28756;49.064;9.290;2022-12-18T03:28:41;100345.81;;;-12.64;100.00
43153;BME280;28756;49.064;9.290;2022-12-18T03:31:12;100352.78;;;-12.60;100.00
43153;BME280;28756;49.064;9.290;2022-12-18T03:33:54;100364.88;;;-12.53;100.00
43153;BME280;28756;49.064;9.290;2022-12-18T03:36:21;100360.03;;;-12.50;100.00
43153;BME280;28756;49.064;9.290;2022-12-18T03:38:47;100362.69;;;-12.62;100.00
43153;BME280;28756;49.064;9.290;2022-12-18T03:47:05;100355.28;;;-12.60;100.00
43153;BME280;28756;49.064;9.290;2022-12-18T03:52:35;100360.50;;;-12.71;100.00
43153;BME280;28756;49.064;9.290;2022-12-18T03:55:04;100355.31;;;-12.74;100.00
43153;BME280;28756;49.064;9.290;2022-12-18T03:57:31;100356.34;;;-12.70;100.00
43153;BME280;28756;49.064;9.290;2022-12-18T04:00:05;100354.38;;;-12.76;100.00
43153;BME280;28756;49.064;9.290;2022-12-18T04:02:34;100347.84;;;-12.87;100.00
43153;BME280;28756;49.064;9.290;2022-12-18T04:05:04;100352.50;;;-12.93;100.00
43153;BME280;28756;49.064;9.290;2022-12-18T04:07:30;100350.84;;;-12.93;100.00
43153;BME280;28756;49.064;9.290;2022-12-18T04:09:59;100361.78;;;-12.77;100.00
43153;BME280;28756;49.064;9.290;2022-12-18T04:12:28;100363.16;;;-12.82;100.00
43153;BME280;28756;49.064;9.290;2022-12-18T04:14:54;100363.00;;;-12.99;100.00
43153;BME280;28756;49.064;9.290;2022-12-18T04:17:20;100366.09;;;-13.03;100.00
43153;BME280;28756;49.064;9.290;2022-12-18T04:19:46;100366.09;;;-13.03;100.00
43153;BME280;28756;49.064;9.290;2022-12-18T04:22:12;100377.06;;;-12.88;100.00
43153;BME280;28756;49.064;9.290;2022-12-18T04:24:38;100379.44;;;-12.89;100.00
43153;BME280;28756;49.064;9.290;2022-12-18T04:27:04;100379.16;;;-12.94;100.00
43153;BME280;28756;49.064;9.290;2022-12-18T04:29:30;100373.03;;;-12.99;100.00
43153;BME280;28756;49.064;9.290;2022-12-18T04:31:56;100375.16;;;-13.05;100.00
43153;BME280;28756;49.064;9.290;2022-12-18T04:34:22;100367.66;;;-13.05;100.00
43153;BME280;28756;49.064;9.290;2022-12-18T04:36:47;100372.72;;;-13.04;100.00
43153;BME280;28756;49.064;9.290;2022-12-18T04:39:14;100383.53;;;-13.05;100.00
43153;BME280;28756;49.064;9.290;2022-12-18T04:41:40;100373.69;;;-13.02;100.00
43153;BME280;28756;49.064;9.290;2022-12-18T04:44:06;100372.44;;;-13.08;100.00
43153;BME280;28756;49.064;9.290;2022-12-18T04:46:32;100377.28;;;-13.11;100.00
43153;BME280;28756;49.064;9.290;2022-12-18T04:48:58;100368.03;;;-13.12;100.00
43153;BME280;28756;49.064;9.290;2022-12-18T04:51:24;100371.22;;;-13.15;100.00
43153;BME280;28756;49.064;9.290;2022-12-18T04:53:49;100372.84;;;-13.15;100.00
43153;BME280;28756;49.064;9.290;2022-12-18T04:56:16;100370.91;;;-13.06;100.00
43153;BME280;28756;49.064;9.290;2022-12-18T04:58:43;100366.47;;;-12.97;100.00
43153;BME280;28756;49.064;9.290;2022-12-18T05:01:11;100370.16;;;-13.05;100.00
43153;BME280;28756;49.064;9.290;2022-12-18T05:03:38;100360.53;;;-13.12;100.00
43153;BME280;28756;49.064;9.290;2022-12-18T05:06:05;100365.63;;;-13.11;100.00
43153;BME280;28756;49.064;9.290;2022-12-18T05:08:32;100363.81;;;-13.13;100.00
43153;BME280;28756;49.064;9.290;2022-12-18T05:11:05;100363.72;;;-13.28;100.00
43153;BME280;28756;49.064;9.290;2022-12-18T05:13:31;100358.84;;;-13.27;100.00
43153;BME280;28756;49.064;9.290;2022-12-18T05:15:57;100364.50;;;-13.29;100.00
43153;BME280;28756;49.064;9.290;2022-12-18T05:18:24;100358.09;;;-13.39;100.00
43153;BME280;28756;49.064;9.290;2022-12-18T05:20:51;100358.69;;;-13.43;100.00
43153;BME280;28756;49.064;9.290;2022-12-18T05:23:17;100357.81;;;-13.44;100.00
43153;BME280;28756;49.064;9.290;2022-12-18T05:25:53;100366.81;;;-13.32;100.00
43153;BME280;28756;49.064;9.290;2022-12-18T05:28:19;100365.38;;;-13.29;100.00
43153;BME280;28756;49.064;9.290;2022-12-18T05:30:51;100361.63;;;-13.36;100.00
43153;BME280;28756;49.064;9.290;2022-12-18T05:33:18;100367.44;;;-13.50;100.00
43153;BME280;28756;49.064;9.290;2022-12-18T05:35:49;100384.66;;;-13.55;100.00
43153;BME280;28756;49.064;9.290;2022-12-18T05:38:15;100380.63;;;-13.53;100.00
43153;BME280;28756;49.064;9.290;2022-12-18T05:40:42;100376.38;;;-13.54;100.00
43153;BME280;28756;49.064;9.290;2022-12-18T05:43:09;100382.66;;;-13.47;100.00
43153;BME280;28756;49.064;9.290;2022-12-18T05:45:38;100376.63;;;-13.36;100.00
43153;BME280;28756;49.064;9.290;2022-12-18T05:48:04;100376.16;;;-13.30;100.00
43153;BME280;28756;49.064;9.290;2022-12-18T05:50:30;100392.31;;;-13.25;100.00
43153;BME280;28756;49.064;9.290;2022-12-18T05:52:55;100394.53;;;-13.29;100.00
43153;BME280;28756;49.064;9.290;2022-12-18T05:55:21;100395.63;;;-13.39;100.00
43153;BME280;28756;49.064;9.290;2022-12-18T05:57:47;100402.75;;;-13.45;100.00
43153;BME280;28756;49.064;9.290;2022-12-18T06:00:13;100405.19;;;-13.47;100.00
43153;BME280;28756;49.064;9.290;2022-12-18T06:02:39;100401.63;;;-13.51;100.00
43153;BME280;28756;49.064;9.290;2022-12-18T06:05:05;100394.19;;;-13.49;100.00
43153;BME280;28756;49.064;9.290;2022-12-18T06:07:31;100392.75;;;-13.45;100.00
43153;BME280;28756;49.064;9.290;2022-12-18T06:09:56;100385.72;;;-13.51;100.00
43153;BME280;28756;49.064;9.290;2022-12-18T06:12:22;100378.44;;;-13.61;100.00
43153;BME280;28756;49.064;9.290;2022-12-18T06:14:48;100385.81;;;-13.63;100.00
43153;BME280;28756;49.064;9.290;2022-12-18T06:17:13;100388.34;;;-13.50;100.00
43153;BME280;28756;49.064;9.290;2022-12-18T06:19:39;100397.09;;;-13.56;100.00
43153;BME280;28756;49.064;9.290;2022-12-18T06:22:05;100396.72;;;-13.62;100.00
43153;BME280;28756;49.064;9.290;2022-12-18T06:24:30;100393.34;;;-13.50;100.00
43153;BME280;28756;49.064;9.290;2022-12-18T06:26:56;100404.22;;;-13.49;100.00
43153;BME280;28756;49.064;9.290;2022-12-18T06:29:22;100405.84;;;-13.50;100.00
43153;BME280;28756;49.064;9.290;2022-12-18T06:31:48;100406.50;;;-13.52;100.00
43153;BME280;28756;49.064;9.290;2022-12-18T06:34:13;100401.22;;;-13.57;100.00
43153;BME280;28756;49.064;9.290;2022-12-18T06:36:39;100406.03;;;-13.60;100.00
43153;BME280;28756;49.064;9.290;2022-12-18T06:39:05;100401.72;;;-13.62;100.00
43153;BME280;28756;49.064;9.290;2022-12-18T06:41:30;100397.19;;;-13.68;100.00
43153;BME280;28756;49.064;9.290;2022-12-18T06:43:57;100397.84;;;-13.71;100.00
43153;BME280;28756;49.064;9.290;2022-12-18T06:46:23;100403.03;;;-13.68;100.00
43153;BME280;28756;49.064;9.290;2022-12-18T06:48:50;100401.41;;;-13.67;100.00
43153;BME280;28756;49.064;9.290;2022-12-18T06:51:21;100405.06;;;-13.62;100.00
43153;BME280;28756;49.064;9.290;2022-12-18T06:53:47;100400.34;;;-13.57;100.00
43153;BME280;28756;49.064;9.290;2022-12-18T06:56:13;100396.13;;;-13.58;100.00
43153;BME280;28756;49.064;9.290;2022-12-18T06:58:39;100402.56;;;-13.62;100.00
43153;BME280;28756;49.064;9.290;2022-12-18T07:01:08;100407.19;;;-13.55;100.00
43153;BME280;28756;49.064;9.290;2022-12-18T07:03:35;100421.44;;;-13.54;100.00
43153;BME280;28756;49.064;9.290;2022-12-18T07:06:02;100435.97;;;-13.48;100.00
43153;BME280;28756;49.064;9.290;2022-12-18T07:08:30;100433.19;;;-13.53;100.00
43153;BME280;28756;49.064;9.290;2022-12-18T07:10:56;100429.88;;;-13.65;100.00
43153;BME280;28756;49.064;9.290;2022-12-18T07:13:21;100439.63;;;-13.56;100.00
43153;BME280;28756;49.064;9.290;2022-12-18T07:15:52;100446.38;;;-13.55;100.00
43153;BME280;28756;49.064;9.290;2022-12-18T07:18:18;100448.66;;;-13.58;100.00
43153;BME280;28756;49.064;9.290;2022-12-18T07:20:44;100440.84;;;-13.63;100.00
43153;BME280;28756;49.064;9.290;2022-12-18T07:23:09;100446.25;;;-13.57;100.00
43153;BME280;28756;49.064;9.290;2022-12-18T07:25:36;100440.50;;;-13.42;100.00
43153;BME280;28756;49.064;9.290;2022-12-18T07:28:02;100441.28;;;-13.43;100.00
43153;BME280;28756;49.064;9.290;2022-12-18T07:30:28;100453.41;;;-13.50;100.00
43153;BME280;28756;49.064;9.290;2022-12-18T07:32:54;100448.41;;;-13.50;100.00
43153;BME280;28756;49.064;9.290;2022-12-18T07:35:20;100451.38;;;-13.55;100.00
43153;BME280;28756;49.064;9.290;2022-12-18T07:37:45;100463.22;;;-13.53;100.00
43153;BME280;28756;49.064;9.290;2022-12-18T07:40:12;100458.19;;;-13.53;100.00
43153;BME280;28756;49.064;9.290;2022-12-18T07:42:37;100465.91;;;-13.50;100.00
43153;BME280;28756;49.064;9.290;2022-12-18T07:45:04;100462.81;;;-13.45;100.00
43153;BME280;28756;49.064;9.290;2022-12-18T07:47:30;100463.69;;;-13.45;100.00
43153;BME280;28756;49.064;9.290;2022-12-18T07:49:55;100455.00;;;-13.37;100.00
43153;BME280;28756;49.064;9.290;2022-12-18T07:52:21;100459.53;;;-13.31;100.00
43153;BME280;28756;49.064;9.290;2022-12-18T07:54:47;100451.34;;;-13.28;100.00
43153;BME280;28756;49.064;9.290;2022-12-18T07:57:16;100453.84;;;-13.28;100.00
43153;BME280;28756;49.064;9.290;2022-12-18T07:59:42;100460.59;;;-13.14;100.00
43153;BME280;28756;49.064;9.290;2022-12-18T08:02:08;100463.28;;;-13.11;100.00
43153;BME280;28756;49.064;9.290;2022-12-18T08:04:34;100463.19;;;-12.99;100.00
43153;BME280;28756;49.064;9.290;2022-12-18T08:06:59;100467.31;;;-12.86;100.00
43153;BME280;28756;49.064;9.290;2022-12-18T08:09:25;100457.78;;;-12.78;100.00
43153;BME280;28756;49.064;9.290;2022-12-18T08:11:51;100467.09;;;-12.62;100.00
43153;BME280;28756;49.064;9.290;2022-12-18T08:14:16;100466.75;;;-12.54;100.00
43153;BME280;28756;49.064;9.290;2022-12-18T08:16:42;100471.56;;;-12.43;100.00
43153;BME280;28756;49.064;9.290;2022-12-18T08:19:11;100464.41;;;-12.37;100.00
43153;BME280;28756;49.064;9.290;2022-12-18T08:21:37;100461.53;;;-12.43;100.00
43153;BME280;28756;49.064;9.290;2022-12-18T08:24:06;100464.00;;;-12.30;100.00
43153;BME280;28756;49.064;9.290;2022-12-18T08:26:32;100458.13;;;-12.30;100.00
43153;BME280;28756;49.064;9.290;2022-12-18T08:29:00;100464.38;;;-12.24;100.00
43153;BME280;28756;49.064;9.290;2022-12-18T08:31:28;100467.13;;;-12.19;100.00
43153;BME280;28756;49.064;9.290;2022-12-18T08:33:55;100466.47;;;-12.01;100.00
43153;BME280;28756;49.064;9.290;2022-12-18T08:36:22;100466.66;;;-11.98;100.00
43153;BME280;28756;49.064;9.290;2022-12-18T08:38:49;100461.13;;;-11.93;100.00
43153;BME280;28756;49.064;9.290;2022-12-18T08:41:17;100464.66;;;-11.89;100.00
43153;BME280;28756;49.064;9.290;2022-12-18T08:43:42;100450.66;;;-11.85;100.00
43153;BME280;28756;49.064;9.290;2022-12-18T08:46:32;100463.91;;;-11.73;100.00
43153;BME280;28756;49.064;9.290;2022-12-18T08:48:58;100460.25;;;-11.63;100.00
43153;BME280;28756;49.064;9.290;2022-12-18T08:51:24;100456.47;;;-11.56;100.00
43153;BME280;28756;49.064;9.290;2022-12-18T08:53:49;100458.53;;;-11.49;100.00
43153;BME280;28756;49.064;9.290;2022-12-18T08:56:15;100461.97;;;-11.32;100.00
43153;BME280;28756;49.064;9.290;2022-12-18T08:58:42;100463.88;;;-11.28;100.00
43153;BME280;28756;49.064;9.290;2022-12-18T09:01:11;100453.84;;;-11.13;100.00
43153;BME280;28756;49.064;9.290;2022-12-18T09:03:38;100463.31;;;-11.07;100.00
43153;BME280;28756;49.064;9.290;2022-12-18T09:06:04;100444.69;;;-10.96;100.00
43153;BME280;28756;49.064;9.290;2022-12-18T09:08:30;100442.91;;;-10.82;100.00
43153;BME280;28756;49.064;9.290;2022-12-18T09:10:56;100429.00;;;-10.75;100.00
43153;BME280;28756;49.064;9.290;2022-12-18T09:13:22;100428.97;;;-10.60;100.00
43153;BME280;28756;49.064;9.290;2022-12-18T09:15:53;100426.75;;;-10.54;100.00
43153;BME280;28756;49.064;9.290;2022-12-18T09:18:21;100423.78;;;-10.47;100.00
43153;BME280;28756;49.064;9.290;2022-12-18T09:20:47;100430.13;;;-10.37;100.00
43153;BME280;28756;49.064;9.290;2022-12-18T09:23:13;100437.66;;;-10.21;100.00
43153;BME280;28756;49.064;9.290;2022-12-18T09:25:40;100442.53;;;-10.07;100.00
43153;BME280;28756;49.064;9.290;2022-12-18T09:30:41;100435.81;;;-9.90;100.00
43153;BME280;28756;49.064;9.290;2022-12-18T09:33:07;100428.78;;;-9.79;100.00
43153;BME280;28756;49.064;9.290;2022-12-18T09:35:37;100420.34;;;-9.63;100.00
43153;BME280;28756;49.064;9.290;2022-12-18T09:38:02;100415.16;;;-9.48;100.00
43153;BME280;28756;49.064;9.290;2022-12-18T09:40:41;100406.16;;;-9.07;100.00
43153;BME280;28756;49.064;9.290;2022-12-18T09:43:18;100407.50;;;-8.78;100.00
43153;BME280;28756;49.064;9.290;2022-12-18T09:45:53;100414.13;;;-8.41;100.00
43153;BME280;28756;49.064;9.290;2022-12-18T09:48:29;100417.34;;;-8.23;100.00
43153;BME280;28756;49.064;9.290;2022-12-18T09:51:02;100421.09;;;-7.74;100.00
43153;BME280;28756;49.064;9.290;2022-12-18T09:53:34;100414.09;;;-6.94;100.00
43153;BME280;28756;49.064;9.290;2022-12-18T09:56:01;100406.31;;;-6.53;100.00
43153;BME280;28756;49.064;9.290;2022-12-18T09:58:45;100397.38;;;-6.43;100.00
43153;BME280;28756;49.064;9.290;2022-12-18T10:01:19;100391.63;;;-6.13;100.00
43153;BME280;28756;49.064;9.290;2022-12-18T10:03:46;100387.97;;;-5.96;100.00
43153;BME280;28756;49.064;9.290;2022-12-18T10:09:57;100390.09;;;-5.57;100.00
43153;BME280;28756;49.064;9.290;2022-12-18T10:15:15;100387.59;;;-5.28;100.00
43153;BME280;28756;49.064;9.290;2022-12-18T10:18:29;100372.84;;;-5.12;100.00
43153;BME280;28756;49.064;9.290;2022-12-18T10:21:13;100379.31;;;-4.93;100.00
43153;BME280;28756;49.064;9.290;2022-12-18T10:26:47;100393.22;;;-4.50;100.00
43153;BME280;28756;49.064;9.290;2022-12-18T10:29:15;100401.69;;;-4.49;100.00
43153;BME280;28756;49.064;9.290;2022-12-18T10:31:41;100395.00;;;-4.47;100.00
43153;BME280;28756;49.064;9.290;2022-12-18T10:34:11;100377.47;;;-4.38;100.00
43153;BME280;28756;49.064;9.290;2022-12-18T10:36:37;100375.06;;;-4.33;100.00
43153;BME280;28756;49.064;9.290;2022-12-18T10:39:24;100374.66;;;-4.17;100.00
43153;BME280;28756;49.064;9.290;2022-12-18T10:41:51;100383.91;;;-4.19;100.00
43153;BME280;28756;49.064;9.290;2022-12-18T10:44:27;100383.09;;;-4.18;100.00
43153;BME280;28756;49.064;9.290;2022-12-18T10:47:04;100394.47;;;-4.03;100.00
43153;BME280;28756;49.064;9.290;2022-12-18T10:49:33;100397.56;;;-4.14;100.00
43153;BME280;28756;49.064;9.290;2022-12-18T10:52:22;100396.75;;;-4.13;100.00
43153;BME280;28756;49.064;9.290;2022-12-18T10:55:01;100387.72;;;-4.03;100.00
43153;BME280;28756;49.064;9.290;2022-12-18T10:57:32;100379.31;;;-4.00;100.00
43153;BME280;28756;49.064;9.290;2022-12-18T11:00:27;100360.16;;;-3.86;100.00
43153;BME280;28756;49.064;9.290;2022-12-18T11:02:54;100356.94;;;-3.80;100.00
43153;BME280;28756;49.064;9.290;2022-12-18T11:05:33;100365.53;;;-3.73;100.00
43153;BME280;28756;49.064;9.290;2022-12-18T11:08:00;100366.69;;;-3.60;100.00
43153;BME280;28756;49.064;9.290;2022-12-18T11:10:36;100357.50;;;-3.55;100.00
43153;BME280;28756;49.064;9.290;2022-12-18T11:13:21;100364.69;;;-3.37;100.00
43153;BME280;28756;49.064;9.290;2022-12-18T11:15:48;100366.69;;;-3.24;100.00
43153;BME280;28756;49.064;9.290;2022-12-18T11:18:28;100355.84;;;-3.15;100.00
43153;BME280;28756;49.064;9.290;2022-12-18T11:21:11;100348.19;;;-3.15;100.00
43153;BME280;28756;49.064;9.290;2022-12-18T11:23:52;100340.81;;;-3.04;100.00
43153;BME280;28756;49.064;9.290;2022-12-18T11:26:19;100331.81;;;-2.88;100.00
43153;BME280;28756;49.064;9.290;2022-12-18T11:28:50;100342.94;;;-2.83;100.00
43153;BME280;28756;49.064;9.290;2022-12-18T11:31:27;100332.94;;;-2.74;100.00
43153;BME280;28756;49.064;9.290;2022-12-18T11:34:26;100327.19;;;-2.65;100.00
43153;BME280;28756;49.064;9.290;2022-12-18T11:36:53;100319.56;;;-2.63;100.00
43153;BME280;28756;49.064;9.290;2022-12-18T11:48:36;100323.00;;;-2.61;100.00
43153;BME280;28756;49.064;9.290;2022-12-18T11:50:56;100317.75;;;-2.67;100.00
43153;BME280;28756;49.064;9.290;2022-12-18T11:53:24;100306.56;;;-2.77;100.00
43153;BME280;28756;49.064;9.290;2022-12-18T12:01:50;100311.19;;;-2.58;100.00
43153;BME280;28756;49.064;9.290;2022-12-18T12:10:52;100302.28;;;-2.31;100.00
43153;BME280;28756;49.064;9.290;2022-12-18T12:14:02;100286.81;;;-2.42;100.00
43153;BME280;28756;49.064;9.290;2022-12-18T12:17:11;100281.69;;;-2.45;100.00
43153;BME280;28756;49.064;9.290;2022-12-18T12:19:51;100275.44;;;-2.61;100.00
43153;BME280;28756;49.064;9.290;2022-12-18T12:23:01;100277.94;;;-2.64;100.00
43153;BME280;28756;49.064;9.290;2022-12-18T12:28:56;100286.53;;;-2.59;100.00
43153;BME280;28756;49.064;9.290;2022-12-18T12:31:42;100282.38;;;-2.54;100.00
43153;BME280;28756;49.064;9.290;2022-12-18T12:37:14;100283.75;;;-2.71;100.00
43153;BME280;28756;49.064;9.290;2022-12-18T12:39:44;100289.09;;;-2.59;100.00
43153;BME280;28756;49.064;9.290;2022-12-18T12:42:40;100284.84;;;-2.58;100.00
43153;BME280;28756;49.064;9.290;2022-12-18T12:48:10;100272.25;;;-2.49;100.00
43153;BME280;28756;49.064;9.290;2022-12-18T12:50:41;100276.53;;;-2.49;100.00
43153;BME280;28756;49.064;9.290;2022-12-18T12:53:21;100285.81;;;-2.51;100.00
43153;BME280;28756;49.064;9.290;2022-12-18T12:55:48;100290.03;;;-2.52;100.00
43153;BME280;28756;49.064;9.290;2022-12-18T13:01:57;100293.63;;;-2.41;100.00
43153;BME280;28756;49.064;9.290;2022-12-18T13:04:46;100294.44;;;-2.43;100.00
43153;BME280;28756;49.064;9.290;2022-12-18T13:07:47;100287.66;;;-2.43;100.00
43153;BME280;28756;49.064;9.290;2022-12-18T13:13:04;100274.97;;;-2.41;100.00
43153;BME280;28756;49.064;9.290;2022-12-18T13:15:47;100281.97;;;-2.29;100.00
43153;BME280;28756;49.064;9.290;2022-12-18T13:18:22;100287.38;;;-2.58;100.00
43153;BME280;28756;49.064;9.290;2022-12-18T13:34:30;100276.53;;;-2.49;100.00
43153;BME280;28756;49.064;9.290;2022-12-18T13:39:57;100277.09;;;-2.63;100.00
43153;BME280;28756;49.064;9.290;2022-12-18T13:42:38;100270.28;;;-2.64;100.00
43153;BME280;28756;49.064;9.290;2022-12-18T13:45:42;100256.78;;;-2.60;100.00
43153;BME280;28756;49.064;9.290;2022-12-18T13:48:22;100255.88;;;-2.63;100.00
43153;BME280;28756;49.064;9.290;2022-12-18T13:51:00;100260.16;;;-2.62;100.00
43153;BME280;28756;49.064;9.290;2022-12-18T13:53:43;100254.16;;;-2.66;100.00
43153;BME280;28756;49.064;9.290;2022-12-18T13:56:16;100265.19;;;-2.64;100.00
43153;BME280;28756;49.064;9.290;2022-12-18T13:58:42;100262.41;;;-2.78;100.00
43153;BME280;28756;49.064;9.290;2022-12-18T14:01:22;100260.69;;;-2.80;100.00
43153;BME280;28756;49.064;9.290;2022-12-18T14:03:48;100264.09;;;-2.78;100.00
43153;BME280;28756;49.064;9.290;2022-12-18T14:06:15;100263.28;;;-2.76;100.00
43153;BME280;28756;49.064;9.290;2022-12-18T14:08:43;100268.34;;;-2.79;100.00
43153;BME280;28756;49.064;9.290;2022-12-18T14:11:20;100268.19;;;-2.87;100.00
43153;BME280;28756;49.064;9.290;2022-12-18T14:13:47;100265.53;;;-2.91;100.00
43153;BME280;28756;49.064;9.290;2022-12-18T14:16:15;100268.88;;;-2.95;100.00
43153;BME280;28756;49.064;9.290;2022-12-18T14:18:56;100282.41;;;-2.98;100.00
43153;BME280;28756;49.064;9.290;2022-12-18T14:21:27;100275.47;;;-3.05;100.00
43153;BME280;28756;49.064;9.290;2022-12-18T14:24:15;100288.13;;;-3.08;100.00
43153;BME280;28756;49.064;9.290;2022-12-18T14:26:41;100287.97;;;-3.16;100.00